sensor_id;sensor_type;location;lat;lon;timestamp;P1;durP1;ratioP1;P2;durP2;ratioP2
5499;SDS011;2772;42.700;23.304;2024-03-02T00:01:14;35.03;;;17.67;;
5499;SDS011;2772;42.700;23.304;2024-03-02T00:03:43;36.20;;;16.57;;
5499;SDS011;2772;42.700;23.304;2024-03-02T00:06:10;37.70;;;18.40;;
5499;SDS011;2772;42.700;23.304;2024-03-02T00:08:37;32.97;;;17.93;;
5499;SDS011;2772;42.700;23.304;2024-03-02T00:11:04;37.20;;;18.57;;
5499;SDS011;2772;42.700;23.304;2024-03-02T00:13:31;27.77;;;16.57;;
5499;SDS011;2772;42.700;23.304;2024-03-02T00:15:58;31.80;;;16.70;;
5499;SDS011;2772;42.700;23.304;2024-03-02T00:18:26;30.63;;;15.97;;
5499;SDS011;2772;42.700;23.304;2024-03-02T00:20:58;34.10;;;17.10;;
5499;SDS011;2772;42.700;23.304;2024-03-02T00:23:27;31.13;;;17.50;;
5499;SDS011;2772;42.700;23.304;2024-03-02T00:25:55;34.60;;;15.97;;
5499;SDS011;2772;42.700;23.304;2024-03-02T00:28:23;28.33;;;14.00;;
5499;SDS011;2772;42.700;23.304;2024-03-02T00:30:52;32.20;;;16.37;;
5499;SDS011;2772;42.700;23.304;2024-03-02T00:33:22;29.70;;;16.77;;
5499;SDS011;2772;42.700;23.304;2024-03-02T00:35:50;29.17;;;16.40;;
5499;SDS011;2772;42.700;23.304;2024-03-02T00:38:18;28.30;;;15.60;;
5499;SDS011;2772;42.700;23.304;2024-03-02T00:40:45;33.30;;;17.60;;
5499;SDS011;2772;42.700;23.304;2024-03-02T00:43:21;33.03;;;17.07;;
5499;SDS011;2772;42.700;23.304;2024-03-02T00:46:07;30.43;;;17.67;;
5499;SDS011;2772;42.700;23.304;2024-03-02T00:48:34;30.23;;;16.83;;
5499;SDS011;2772;42.700;23.304;2024-03-02T00:51:02;35.17;;;17.00;;
5499;SDS011;2772;42.700;23.304;2024-03-02T00:53:31;29.73;;;15.97;;
5499;SDS011;2772;42.700;23.304;2024-03-02T00:55:58;31.17;;;16.93;;
5499;SDS011;2772;42.700;23.304;2024-03-02T00:58:26;32.60;;;17.30;;
5499;SDS011;2772;42.700;23.304;2024-03-02T01:00:53;27.80;;;15.70;;
5499;SDS011;2772;42.700;23.304;2024-03-02T01:03:20;27.23;;;16.00;;
5499;SDS011;2772;42.700;23.304;2024-03-02T01:05:47;27.20;;;16.73;;
5499;SDS011;2772;42.700;23.304;2024-03-02T01:08:14;29.90;;;17.17;;
5499;SDS011;2772;42.700;23.304;2024-03-02T01:10:42;28.30;;;15.33;;
5499;SDS011;2772;42.700;23.304;2024-03-02T01:13:09;27.77;;;14.83;;
5499;SDS011;2772;42.700;23.304;2024-03-02T01:15:36;28.13;;;14.07;;
5499;SDS011;2772;42.700;23.304;2024-03-02T01:18:03;26.63;;;15.30;;
5499;SDS011;2772;42.700;23.304;2024-03-02T01:20:30;28.47;;;16.40;;
5499;SDS011;2772;42.700;23.304;2024-03-02T01:22:57;25.47;;;14.20;;
5499;SDS011;2772;42.700;23.304;2024-03-02T01:25:24;30.40;;;16.20;;
5499;SDS011;2772;42.700;23.304;2024-03-02T01:27:52;28.80;;;15.97;;
5499;SDS011;2772;42.700;23.304;2024-03-02T01:30:18;27.20;;;16.30;;
5499;SDS011;2772;42.700;23.304;2024-03-02T01:32:46;27.30;;;15.57;;
5499;SDS011;2772;42.700;23.304;2024-03-02T01:35:13;27.17;;;15.50;;
5499;SDS011;2772;42.700;23.304;2024-03-02T01:37:40;27.07;;;15.47;;
5499;SDS011;2772;42.700;23.304;2024-03-02T01:40:07;30.10;;;16.10;;
5499;SDS011;2772;42.700;23.304;2024-03-02T01:42:35;31.57;;;17.53;;
5499;SDS011;2772;42.700;23.304;2024-03-02T01:45:05;37.27;;;18.40;;
5499;SDS011;2772;42.700;23.304;2024-03-02T01:47:32;31.23;;;17.90;;
5499;SDS011;2772;42.700;23.304;2024-03-02T01:49:59;36.37;;;19.10;;
5499;SDS011;2772;42.700;23.304;2024-03-02T01:52:26;33.40;;;18.20;;
5499;SDS011;2772;42.700;23.304;2024-03-02T01:54:54;32.80;;;17.93;;
5499;SDS011;2772;42.700;23.304;2024-03-02T01:57:21;36.20;;;19.00;;
5499;SDS011;2772;42.700;23.304;2024-03-02T01:59:49;30.73;;;17.30;;
5499;SDS011;2772;42.700;23.304;2024-03-02T02:02:18;37.50;;;19.37;;
5499;SDS011;2772;42.700;23.304;2024-03-02T02:04:45;37.87;;;19.37;;
5499;SDS011;2772;42.700;23.304;2024-03-02T02:07:12;37.87;;;18.33;;
5499;SDS011;2772;42.700;23.304;2024-03-02T02:09:39;38.57;;;17.93;;
5499;SDS011;2772;42.700;23.304;2024-03-02T02:12:06;33.90;;;19.20;;
5499;SDS011;2772;42.700;23.304;2024-03-02T02:14:33;36.90;;;19.40;;
5499;SDS011;2772;42.700;23.304;2024-03-02T02:17:00;36.43;;;18.47;;
5499;SDS011;2772;42.700;23.304;2024-03-02T02:19:28;37.17;;;18.20;;
5499;SDS011;2772;42.700;23.304;2024-03-02T02:21:56;35.90;;;19.93;;
5499;SDS011;2772;42.700;23.304;2024-03-02T02:24:23;34.03;;;17.97;;
5499;SDS011;2772;42.700;23.304;2024-03-02T02:26:50;36.10;;;19.50;;
5499;SDS011;2772;42.700;23.304;2024-03-02T02:29:17;39.37;;;19.40;;
5499;SDS011;2772;42.700;23.304;2024-03-02T02:31:43;27.40;;;17.50;;
5499;SDS011;2772;42.700;23.304;2024-03-02T02:34:10;36.70;;;17.90;;
5499;SDS011;2772;42.700;23.304;2024-03-02T02:36:37;34.40;;;19.40;;
5499;SDS011;2772;42.700;23.304;2024-03-02T02:39:07;33.50;;;18.60;;
5499;SDS011;2772;42.700;23.304;2024-03-02T02:41:37;32.67;;;18.40;;
5499;SDS011;2772;42.700;23.304;2024-03-02T02:44:04;34.77;;;18.53;;
5499;SDS011;2772;42.700;23.304;2024-03-02T02:46:31;35.07;;;18.33;;
5499;SDS011;2772;42.700;23.304;2024-03-02T02:48:58;36.60;;;17.60;;
5499;SDS011;2772;42.700;23.304;2024-03-02T02:51:24;33.13;;;18.73;;
5499;SDS011;2772;42.700;23.304;2024-03-02T02:53:51;32.07;;;18.70;;
5499;SDS011;2772;42.700;23.304;2024-03-02T02:56:19;30.67;;;18.20;;
5499;SDS011;2772;42.700;23.304;2024-03-02T02:58:46;28.97;;;18.03;;
5499;SDS011;2772;42.700;23.304;2024-03-02T03:01:13;35.47;;;18.30;;
5499;SDS011;2772;42.700;23.304;2024-03-02T03:03:42;30.10;;;17.50;;
5499;SDS011;2772;42.700;23.304;2024-03-02T03:06:09;30.00;;;17.70;;
5499;SDS011;2772;42.700;23.304;2024-03-02T03:08:35;32.40;;;18.10;;
5499;SDS011;2772;42.700;23.304;2024-03-02T03:11:03;33.67;;;18.03;;
5499;SDS011;2772;42.700;23.304;2024-03-02T03:13:31;38.30;;;20.20;;
5499;SDS011;2772;42.700;23.304;2024-03-02T03:15:58;36.93;;;18.27;;
5499;SDS011;2772;42.700;23.304;2024-03-02T03:18:25;34.27;;;18.77;;
5499;SDS011;2772;42.700;23.304;2024-03-02T03:20:52;35.93;;;19.70;;
5499;SDS011;2772;42.700;23.304;2024-03-02T03:23:19;49.27;;;24.30;;
5499;SDS011;2772;42.700;23.304;2024-03-02T03:25:46;49.30;;;23.20;;
5499;SDS011;2772;42.700;23.304;2024-03-02T03:28:12;41.77;;;22.47;;
5499;SDS011;2772;42.700;23.304;2024-03-02T03:30:40;46.10;;;23.87;;
5499;SDS011;2772;42.700;23.304;2024-03-02T03:33:08;43.30;;;23.13;;
5499;SDS011;2772;42.700;23.304;2024-03-02T03:35:35;41.03;;;21.20;;
5499;SDS011;2772;42.700;23.304;2024-03-02T03:38:02;38.60;;;19.27;;
5499;SDS011;2772;42.700;23.304;2024-03-02T03:40:29;34.70;;;19.60;;
5499;SDS011;2772;42.700;23.304;2024-03-02T03:42:56;37.63;;;20.37;;
5499;SDS011;2772;42.700;23.304;2024-03-02T03:45:23;35.80;;;19.83;;
5499;SDS011;2772;42.700;23.304;2024-03-02T03:47:52;33.00;;;19.10;;
5499;SDS011;2772;42.700;23.304;2024-03-02T03:50:19;31.77;;;18.43;;
5499;SDS011;2772;42.700;23.304;2024-03-02T03:52:46;38.30;;;19.07;;
5499;SDS011;2772;42.700;23.304;2024-03-02T03:55:13;35.53;;;19.00;;
5499;SDS011;2772;42.700;23.304;2024-03-02T03:57:39;33.07;;;18.87;;
5499;SDS011;2772;42.700;23.304;2024-03-02T04:00:06;37.17;;;19.17;;
5499;SDS011;2772;42.700;23.304;2024-03-02T04:02:35;36.80;;;19.30;;
5499;SDS011;2772;42.700;23.304;2024-03-02T04:05:03;39.57;;;20.37;;
5499;SDS011;2772;42.700;23.304;2024-03-02T04:07:34;31.93;;;19.03;;
5499;SDS011;2772;42.700;23.304;2024-03-02T04:10:05;38.10;;;19.80;;
5499;SDS011;2772;42.700;23.304;2024-03-02T04:12:34;35.67;;;19.37;;
5499;SDS011;2772;42.700;23.304;2024-03-02T04:15:01;34.37;;;19.50;;
5499;SDS011;2772;42.700;23.304;2024-03-02T04:17:29;36.40;;;19.67;;
5499;SDS011;2772;42.700;23.304;2024-03-02T04:19:58;41.23;;;20.20;;
5499;SDS011;2772;42.700;23.304;2024-03-02T04:22:27;35.83;;;20.00;;
5499;SDS011;2772;42.700;23.304;2024-03-02T04:24:54;45.27;;;21.20;;
5499;SDS011;2772;42.700;23.304;2024-03-02T04:27:20;40.63;;;21.87;;
5499;SDS011;2772;42.700;23.304;2024-03-02T04:29:47;43.00;;;22.70;;
5499;SDS011;2772;42.700;23.304;2024-03-02T04:32:14;38.40;;;21.67;;
5499;SDS011;2772;42.700;23.304;2024-03-02T04:34:40;39.87;;;22.03;;
5499;SDS011;2772;42.700;23.304;2024-03-02T04:37:07;43.87;;;22.40;;
5499;SDS011;2772;42.700;23.304;2024-03-02T04:39:36;48.03;;;26.25;;
5499;SDS011;2772;42.700;23.304;2024-03-02T04:42:02;48.27;;;23.77;;
5499;SDS011;2772;42.700;23.304;2024-03-02T04:44:29;44.43;;;22.90;;
5499;SDS011;2772;42.700;23.304;2024-03-02T04:46:56;42.60;;;23.17;;
5499;SDS011;2772;42.700;23.304;2024-03-02T04:49:23;48.60;;;23.03;;
5499;SDS011;2772;42.700;23.304;2024-03-02T04:51:49;36.57;;;20.30;;
5499;SDS011;2772;42.700;23.304;2024-03-02T04:54:16;45.97;;;22.93;;
5499;SDS011;2772;42.700;23.304;2024-03-02T04:56:44;41.87;;;23.00;;
5499;SDS011;2772;42.700;23.304;2024-03-02T04:59:14;36.30;;;21.17;;
5499;SDS011;2772;42.700;23.304;2024-03-02T05:01:42;46.73;;;22.47;;
5499;SDS011;2772;42.700;23.304;2024-03-02T05:04:08;48.50;;;22.63;;
5499;SDS011;2772;42.700;23.304;2024-03-02T05:06:36;46.83;;;23.20;;
5499;SDS011;2772;42.700;23.304;2024-03-02T05:09:04;57.97;;;29.47;;
5499;SDS011;2772;42.700;23.304;2024-03-02T05:11:31;67.23;;;33.17;;
5499;SDS011;2772;42.700;23.304;2024-03-02T05:14:19;74.40;;;34.43;;
5499;SDS011;2772;42.700;23.304;2024-03-02T05:16:46;76.30;;;35.33;;
5499;SDS011;2772;42.700;23.304;2024-03-02T05:19:13;69.60;;;35.60;;
5499;SDS011;2772;42.700;23.304;2024-03-02T05:21:39;63.60;;;33.63;;
5499;SDS011;2772;42.700;23.304;2024-03-02T05:24:06;65.80;;;31.40;;
5499;SDS011;2772;42.700;23.304;2024-03-02T05:26:33;60.03;;;31.60;;
5499;SDS011;2772;42.700;23.304;2024-03-02T05:29:00;58.57;;;28.13;;
5499;SDS011;2772;42.700;23.304;2024-03-02T05:31:29;53.77;;;26.60;;
5499;SDS011;2772;42.700;23.304;2024-03-02T05:33:56;50.80;;;25.13;;
5499;SDS011;2772;42.700;23.304;2024-03-02T05:36:23;53.20;;;26.90;;
5499;SDS011;2772;42.700;23.304;2024-03-02T05:38:49;53.10;;;25.50;;
5499;SDS011;2772;42.700;23.304;2024-03-02T05:41:16;50.40;;;25.80;;
5499;SDS011;2772;42.700;23.304;2024-03-02T05:43:43;52.73;;;25.50;;
5499;SDS011;2772;42.700;23.304;2024-03-02T05:46:10;49.43;;;25.53;;
5499;SDS011;2772;42.700;23.304;2024-03-02T05:48:38;48.87;;;24.90;;
5499;SDS011;2772;42.700;23.304;2024-03-02T05:51:05;46.10;;;25.00;;
5499;SDS011;2772;42.700;23.304;2024-03-02T05:53:31;51.73;;;26.13;;
5499;SDS011;2772;42.700;23.304;2024-03-02T05:55:58;48.00;;;24.33;;
5499;SDS011;2772;42.700;23.304;2024-03-02T05:58:25;51.27;;;25.60;;
5499;SDS011;2772;42.700;23.304;2024-03-02T06:01:02;55.90;;;24.67;;
5499;SDS011;2772;42.700;23.304;2024-03-02T06:03:29;51.40;;;26.00;;
5499;SDS011;2772;42.700;23.304;2024-03-02T06:05:57;47.60;;;24.03;;
5499;SDS011;2772;42.700;23.304;2024-03-02T06:08:24;51.67;;;25.00;;
5499;SDS011;2772;42.700;23.304;2024-03-02T06:10:51;46.53;;;23.47;;
5499;SDS011;2772;42.700;23.304;2024-03-02T06:13:18;45.43;;;21.67;;
5499;SDS011;2772;42.700;23.304;2024-03-02T06:15:44;44.60;;;22.07;;
5499;SDS011;2772;42.700;23.304;2024-03-02T06:18:11;44.20;;;23.00;;
5499;SDS011;2772;42.700;23.304;2024-03-02T06:20:38;45.83;;;21.43;;
5499;SDS011;2772;42.700;23.304;2024-03-02T06:23:06;46.20;;;21.93;;
5499;SDS011;2772;42.700;23.304;2024-03-02T06:25:32;45.57;;;22.43;;
5499;SDS011;2772;42.700;23.304;2024-03-02T06:27:59;42.50;;;22.27;;
5499;SDS011;2772;42.700;23.304;2024-03-02T06:30:26;42.50;;;21.70;;
5499;SDS011;2772;42.700;23.304;2024-03-02T06:32:52;42.33;;;20.70;;
5499;SDS011;2772;42.700;23.304;2024-03-02T06:35:19;45.17;;;21.70;;
5499;SDS011;2772;42.700;23.304;2024-03-02T06:37:46;50.53;;;22.87;;
5499;SDS011;2772;42.700;23.304;2024-03-02T06:40:14;43.70;;;20.83;;
5499;SDS011;2772;42.700;23.304;2024-03-02T06:42:41;42.33;;;21.77;;
5499;SDS011;2772;42.700;23.304;2024-03-02T06:45:07;42.33;;;21.30;;
5499;SDS011;2772;42.700;23.304;2024-03-02T06:47:34;41.93;;;21.07;;
5499;SDS011;2772;42.700;23.304;2024-03-02T06:50:01;43.50;;;21.37;;
5499;SDS011;2772;42.700;23.304;2024-03-02T06:52:28;40.07;;;20.47;;
5499;SDS011;2772;42.700;23.304;2024-03-02T06:54:54;41.43;;;21.77;;
5499;SDS011;2772;42.700;23.304;2024-03-02T06:57:22;44.30;;;22.37;;
5499;SDS011;2772;42.700;23.304;2024-03-02T06:59:49;40.97;;;21.93;;
5499;SDS011;2772;42.700;23.304;2024-03-02T07:02:19;43.20;;;20.73;;
5499;SDS011;2772;42.700;23.304;2024-03-02T07:04:46;43.50;;;21.20;;
5499;SDS011;2772;42.700;23.304;2024-03-02T07:07:13;43.50;;;19.97;;
5499;SDS011;2772;42.700;23.304;2024-03-02T07:09:39;39.37;;;19.57;;
5499;SDS011;2772;42.700;23.304;2024-03-02T07:12:06;43.60;;;20.80;;
5499;SDS011;2772;42.700;23.304;2024-03-02T07:14:34;40.83;;;20.20;;
5499;SDS011;2772;42.700;23.304;2024-03-02T07:17:33;39.57;;;19.90;;
5499;SDS011;2772;42.700;23.304;2024-03-02T07:20:00;41.10;;;20.03;;
5499;SDS011;2772;42.700;23.304;2024-03-02T07:22:28;41.57;;;19.63;;
5499;SDS011;2772;42.700;23.304;2024-03-02T07:24:56;44.27;;;20.70;;
5499;SDS011;2772;42.700;23.304;2024-03-02T07:27:22;38.63;;;19.23;;
5499;SDS011;2772;42.700;23.304;2024-03-02T07:29:50;42.73;;;20.40;;
5499;SDS011;2772;42.700;23.304;2024-03-02T07:32:17;40.47;;;20.30;;
5499;SDS011;2772;42.700;23.304;2024-03-02T07:34:44;43.67;;;20.20;;
5499;SDS011;2772;42.700;23.304;2024-03-02T07:37:10;44.07;;;20.40;;
5499;SDS011;2772;42.700;23.304;2024-03-02T07:39:37;56.03;;;28.87;;
5499;SDS011;2772;42.700;23.304;2024-03-02T07:42:05;49.90;;;25.00;;
5499;SDS011;2772;42.700;23.304;2024-03-02T07:44:32;52.80;;;22.63;;
5499;SDS011;2772;42.700;23.304;2024-03-02T07:47:03;40.80;;;20.80;;
5499;SDS011;2772;42.700;23.304;2024-03-02T07:49:30;45.23;;;20.80;;
5499;SDS011;2772;42.700;23.304;2024-03-02T07:51:57;35.37;;;19.40;;
5499;SDS011;2772;42.700;23.304;2024-03-02T07:54:24;38.90;;;19.40;;
5499;SDS011;2772;42.700;23.304;2024-03-02T07:56:50;39.17;;;20.37;;
5499;SDS011;2772;42.700;23.304;2024-03-02T07:59:17;40.07;;;19.63;;
5499;SDS011;2772;42.700;23.304;2024-03-02T08:01:44;40.90;;;20.20;;
5499;SDS011;2772;42.700;23.304;2024-03-02T08:04:12;38.37;;;20.00;;
5499;SDS011;2772;42.700;23.304;2024-03-02T08:06:39;40.70;;;19.70;;
5499;SDS011;2772;42.700;23.304;2024-03-02T08:09:06;37.30;;;18.93;;
5499;SDS011;2772;42.700;23.304;2024-03-02T08:11:35;45.93;;;21.20;;
5499;SDS011;2772;42.700;23.304;2024-03-02T08:14:02;37.53;;;19.70;;
5499;SDS011;2772;42.700;23.304;2024-03-02T08:16:29;41.00;;;18.77;;
5499;SDS011;2772;42.700;23.304;2024-03-02T08:18:56;41.13;;;19.70;;
5499;SDS011;2772;42.700;23.304;2024-03-02T08:21:24;36.67;;;19.03;;
5499;SDS011;2772;42.700;23.304;2024-03-02T08:23:51;38.60;;;20.10;;
5499;SDS011;2772;42.700;23.304;2024-03-02T08:26:18;42.50;;;21.50;;
5499;SDS011;2772;42.700;23.304;2024-03-02T08:28:45;43.40;;;22.13;;
5499;SDS011;2772;42.700;23.304;2024-03-02T08:31:12;40.17;;;21.40;;
5499;SDS011;2772;42.700;23.304;2024-03-02T08:33:38;46.80;;;21.47;;
5499;SDS011;2772;42.700;23.304;2024-03-02T08:36:05;37.47;;;20.20;;
5499;SDS011;2772;42.700;23.304;2024-03-02T08:38:36;38.47;;;19.47;;
5499;SDS011;2772;42.700;23.304;2024-03-02T08:41:03;39.77;;;20.73;;
5499;SDS011;2772;42.700;23.304;2024-03-02T08:43:30;42.20;;;21.03;;
5499;SDS011;2772;42.700;23.304;2024-03-02T08:45:57;40.53;;;21.80;;
5499;SDS011;2772;42.700;23.304;2024-03-02T08:48:23;42.63;;;21.80;;
5499;SDS011;2772;42.700;23.304;2024-03-02T08:50:50;45.20;;;20.60;;
5499;SDS011;2772;42.700;23.304;2024-03-02T08:53:17;42.63;;;20.37;;
5499;SDS011;2772;42.700;23.304;2024-03-02T08:55:46;40.30;;;21.00;;
5499;SDS011;2772;42.700;23.304;2024-03-02T08:58:13;44.20;;;21.50;;
5499;SDS011;2772;42.700;23.304;2024-03-02T09:00:39;41.47;;;19.87;;
5499;SDS011;2772;42.700;23.304;2024-03-02T09:03:07;41.23;;;21.10;;
5499;SDS011;2772;42.700;23.304;2024-03-02T09:05:33;39.63;;;19.80;;
5499;SDS011;2772;42.700;23.304;2024-03-02T09:08:00;39.57;;;20.80;;
5499;SDS011;2772;42.700;23.304;2024-03-02T09:10:28;43.87;;;23.27;;
5499;SDS011;2772;42.700;23.304;2024-03-02T09:12:56;34.33;;;19.90;;
5499;SDS011;2772;42.700;23.304;2024-03-02T09:15:23;43.00;;;22.27;;
5499;SDS011;2772;42.700;23.304;2024-03-02T09:17:50;44.80;;;21.77;;
5499;SDS011;2772;42.700;23.304;2024-03-02T09:20:16;39.10;;;21.47;;
5499;SDS011;2772;42.700;23.304;2024-03-02T09:22:43;38.13;;;20.17;;
5499;SDS011;2772;42.700;23.304;2024-03-02T09:25:12;46.63;;;20.80;;
5499;SDS011;2772;42.700;23.304;2024-03-02T09:27:39;40.37;;;20.57;;
5499;SDS011;2772;42.700;23.304;2024-03-02T09:30:09;41.97;;;20.27;;
5499;SDS011;2772;42.700;23.304;2024-03-02T09:32:37;36.97;;;19.63;;
5499;SDS011;2772;42.700;23.304;2024-03-02T09:35:04;37.63;;;19.90;;
5499;SDS011;2772;42.700;23.304;2024-03-02T09:37:31;38.87;;;20.73;;
5499;SDS011;2772;42.700;23.304;2024-03-02T09:39:57;41.90;;;20.03;;
5499;SDS011;2772;42.700;23.304;2024-03-02T09:42:25;40.13;;;19.57;;
5499;SDS011;2772;42.700;23.304;2024-03-02T09:44:52;37.20;;;19.97;;
5499;SDS011;2772;42.700;23.304;2024-03-02T09:47:20;39.70;;;21.53;;
5499;SDS011;2772;42.700;23.304;2024-03-02T09:49:47;52.33;;;21.40;;
5499;SDS011;2772;42.700;23.304;2024-03-02T09:52:13;40.20;;;19.60;;
5499;SDS011;2772;42.700;23.304;2024-03-02T09:54:41;36.43;;;20.07;;
5499;SDS011;2772;42.700;23.304;2024-03-02T09:57:08;39.70;;;20.67;;
5499;SDS011;2772;42.700;23.304;2024-03-02T09:59:35;37.10;;;19.70;;
5499;SDS011;2772;42.700;23.304;2024-03-02T10:02:02;37.00;;;19.67;;
5499;SDS011;2772;42.700;23.304;2024-03-02T10:04:33;40.93;;;20.13;;
5499;SDS011;2772;42.700;23.304;2024-03-02T10:07:13;42.53;;;20.63;;
5499;SDS011;2772;42.700;23.304;2024-03-02T10:09:41;40.97;;;18.97;;
5499;SDS011;2772;42.700;23.304;2024-03-02T10:12:10;41.20;;;20.57;;
5499;SDS011;2772;42.700;23.304;2024-03-02T10:14:37;37.13;;;21.43;;
5499;SDS011;2772;42.700;23.304;2024-03-02T10:17:05;35.07;;;19.20;;
5499;SDS011;2772;42.700;23.304;2024-03-02T10:19:34;70.33;;;29.80;;
5499;SDS011;2772;42.700;23.304;2024-03-02T10:22:02;50.43;;;23.23;;
5499;SDS011;2772;42.700;23.304;2024-03-02T10:24:35;45.37;;;20.80;;
5499;SDS011;2772;42.700;23.304;2024-03-02T10:27:06;40.20;;;19.60;;
5499;SDS011;2772;42.700;23.304;2024-03-02T10:29:38;40.10;;;17.77;;
5499;SDS011;2772;42.700;23.304;2024-03-02T10:32:06;39.50;;;20.30;;
5499;SDS011;2772;42.700;23.304;2024-03-02T10:34:38;41.43;;;19.30;;
5499;SDS011;2772;42.700;23.304;2024-03-02T10:37:07;38.43;;;19.20;;
5499;SDS011;2772;42.700;23.304;2024-03-02T10:39:34;35.47;;;18.27;;
5499;SDS011;2772;42.700;23.304;2024-03-02T10:42:02;44.70;;;18.90;;
5499;SDS011;2772;42.700;23.304;2024-03-02T10:44:30;36.80;;;18.57;;
5499;SDS011;2772;42.700;23.304;2024-03-02T10:46:58;38.40;;;18.70;;
5499;SDS011;2772;42.700;23.304;2024-03-02T10:49:26;38.20;;;18.20;;
5499;SDS011;2772;42.700;23.304;2024-03-02T10:51:56;31.90;;;17.20;;
5499;SDS011;2772;42.700;23.304;2024-03-02T10:54:23;35.50;;;18.90;;
5499;SDS011;2772;42.700;23.304;2024-03-02T10:56:54;35.90;;;17.80;;
5499;SDS011;2772;42.700;23.304;2024-03-02T10:59:24;36.57;;;20.13;;
5499;SDS011;2772;42.700;23.304;2024-03-02T11:01:53;40.07;;;18.23;;
5499;SDS011;2772;42.700;23.304;2024-03-02T11:04:22;36.57;;;18.03;;
5499;SDS011;2772;42.700;23.304;2024-03-02T11:06:51;39.70;;;19.53;;
5499;SDS011;2772;42.700;23.304;2024-03-02T11:09:20;32.97;;;17.57;;
5499;SDS011;2772;42.700;23.304;2024-03-02T11:11:49;34.20;;;17.30;;
5499;SDS011;2772;42.700;23.304;2024-03-02T11:14:21;36.00;;;19.07;;
5499;SDS011;2772;42.700;23.304;2024-03-02T11:16:50;36.60;;;17.33;;
5499;SDS011;2772;42.700;23.304;2024-03-02T11:19:19;35.20;;;18.03;;
5499;SDS011;2772;42.700;23.304;2024-03-02T11:21:46;33.20;;;17.30;;
5499;SDS011;2772;42.700;23.304;2024-03-02T11:24:29;30.63;;;16.97;;
5499;SDS011;2772;42.700;23.304;2024-03-02T11:27:00;37.70;;;18.40;;
5499;SDS011;2772;42.700;23.304;2024-03-02T11:29:42;37.33;;;20.00;;
5499;SDS011;2772;42.700;23.304;2024-03-02T11:32:13;36.90;;;21.83;;
5499;SDS011;2772;42.700;23.304;2024-03-02T11:34:45;38.60;;;20.30;;
5499;SDS011;2772;42.700;23.304;2024-03-02T11:37:14;32.37;;;18.20;;
5499;SDS011;2772;42.700;23.304;2024-03-02T11:39:44;41.70;;;22.17;;
5499;SDS011;2772;42.700;23.304;2024-03-02T11:42:11;34.60;;;20.10;;
5499;SDS011;2772;42.700;23.304;2024-03-02T11:44:41;32.80;;;16.80;;
5499;SDS011;2772;42.700;23.304;2024-03-02T11:47:10;28.70;;;16.70;;
5499;SDS011;2772;42.700;23.304;2024-03-02T11:49:40;29.10;;;15.60;;
5499;SDS011;2772;42.700;23.304;2024-03-02T11:52:10;32.57;;;16.60;;
5499;SDS011;2772;42.700;23.304;2024-03-02T11:54:39;29.07;;;16.73;;
5499;SDS011;2772;42.700;23.304;2024-03-02T11:57:12;34.03;;;18.33;;
5499;SDS011;2772;42.700;23.304;2024-03-02T11:59:40;32.20;;;17.23;;
5499;SDS011;2772;42.700;23.304;2024-03-02T12:02:06;34.73;;;18.23;;
5499;SDS011;2772;42.700;23.304;2024-03-02T12:04:41;35.33;;;18.00;;
5499;SDS011;2772;42.700;23.304;2024-03-02T12:07:08;32.97;;;17.17;;
5499;SDS011;2772;42.700;23.304;2024-03-02T12:09:35;31.50;;;17.00;;
5499;SDS011;2772;42.700;23.304;2024-03-02T12:12:03;33.37;;;17.00;;
5499;SDS011;2772;42.700;23.304;2024-03-02T12:14:33;33.10;;;16.43;;
5499;SDS011;2772;42.700;23.304;2024-03-02T12:17:00;34.70;;;18.50;;
5499;SDS011;2772;42.700;23.304;2024-03-02T12:19:28;30.97;;;16.63;;
5499;SDS011;2772;42.700;23.304;2024-03-02T12:21:55;33.50;;;18.90;;
5499;SDS011;2772;42.700;23.304;2024-03-02T12:24:22;31.17;;;18.33;;
5499;SDS011;2772;42.700;23.304;2024-03-02T12:26:50;31.70;;;18.80;;
5499;SDS011;2772;42.700;23.304;2024-03-02T12:29:18;29.83;;;18.27;;
5499;SDS011;2772;42.700;23.304;2024-03-02T12:31:47;33.00;;;17.57;;
5499;SDS011;2772;42.700;23.304;2024-03-02T12:34:15;39.70;;;20.97;;
5499;SDS011;2772;42.700;23.304;2024-03-02T12:36:43;39.50;;;20.63;;
5499;SDS011;2772;42.700;23.304;2024-03-02T12:39:13;32.27;;;17.17;;
5499;SDS011;2772;42.700;23.304;2024-03-02T12:41:40;33.77;;;19.20;;
5499;SDS011;2772;42.700;23.304;2024-03-02T12:44:08;31.60;;;17.80;;
5499;SDS011;2772;42.700;23.304;2024-03-02T12:46:35;38.40;;;19.50;;
5499;SDS011;2772;42.700;23.304;2024-03-02T12:49:07;34.30;;;18.07;;
5499;SDS011;2772;42.700;23.304;2024-03-02T12:51:36;29.90;;;16.67;;
5499;SDS011;2772;42.700;23.304;2024-03-02T12:54:03;30.63;;;16.33;;
5499;SDS011;2772;42.700;23.304;2024-03-02T12:56:30;29.50;;;17.63;;
5499;SDS011;2772;42.700;23.304;2024-03-02T12:58:59;34.60;;;18.00;;
5499;SDS011;2772;42.700;23.304;2024-03-02T13:01:25;33.47;;;16.40;;
5499;SDS011;2772;42.700;23.304;2024-03-02T13:03:52;36.53;;;18.40;;
5499;SDS011;2772;42.700;23.304;2024-03-02T13:06:21;32.50;;;17.83;;
5499;SDS011;2772;42.700;23.304;2024-03-02T13:08:48;35.13;;;16.57;;
5499;SDS011;2772;42.700;23.304;2024-03-02T13:11:15;31.30;;;16.17;;
5499;SDS011;2772;42.700;23.304;2024-03-02T13:13:43;32.17;;;17.90;;
5499;SDS011;2772;42.700;23.304;2024-03-02T13:16:09;28.07;;;16.57;;
5499;SDS011;2772;42.700;23.304;2024-03-02T13:18:38;37.23;;;19.73;;
5499;SDS011;2772;42.700;23.304;2024-03-02T13:21:05;30.70;;;18.20;;
5499;SDS011;2772;42.700;23.304;2024-03-02T13:23:33;35.13;;;18.30;;
5499;SDS011;2772;42.700;23.304;2024-03-02T13:26:00;32.00;;;17.70;;
5499;SDS011;2772;42.700;23.304;2024-03-02T13:28:27;39.53;;;19.60;;
5499;SDS011;2772;42.700;23.304;2024-03-02T13:30:54;34.63;;;16.80;;
5499;SDS011;2772;42.700;23.304;2024-03-02T13:33:21;29.00;;;17.57;;
5499;SDS011;2772;42.700;23.304;2024-03-02T13:35:48;29.10;;;16.70;;
5499;SDS011;2772;42.700;23.304;2024-03-02T13:38:16;31.00;;;18.37;;
5499;SDS011;2772;42.700;23.304;2024-03-02T13:40:45;27.17;;;16.30;;
5499;SDS011;2772;42.700;23.304;2024-03-02T13:43:12;34.97;;;18.17;;
5499;SDS011;2772;42.700;23.304;2024-03-02T13:45:39;30.47;;;17.30;;
5499;SDS011;2772;42.700;23.304;2024-03-02T13:48:06;27.47;;;16.40;;
5499;SDS011;2772;42.700;23.304;2024-03-02T13:50:33;31.13;;;15.57;;
5499;SDS011;2772;42.700;23.304;2024-03-02T13:53:00;26.80;;;16.10;;
5499;SDS011;2772;42.700;23.304;2024-03-02T13:55:28;26.83;;;15.83;;
5499;SDS011;2772;42.700;23.304;2024-03-02T13:57:56;25.57;;;15.47;;
5499;SDS011;2772;42.700;23.304;2024-03-02T14:00:23;27.77;;;15.83;;
5499;SDS011;2772;42.700;23.304;2024-03-02T14:02:50;34.87;;;15.97;;
5499;SDS011;2772;42.700;23.304;2024-03-02T14:05:17;26.27;;;16.77;;
5499;SDS011;2772;42.700;23.304;2024-03-02T14:07:44;28.47;;;15.97;;
5499;SDS011;2772;42.700;23.304;2024-03-02T14:10:11;32.00;;;17.67;;
5499;SDS011;2772;42.700;23.304;2024-03-02T14:12:38;28.97;;;16.67;;
5499;SDS011;2772;42.700;23.304;2024-03-02T14:15:06;26.13;;;16.23;;
5499;SDS011;2772;42.700;23.304;2024-03-02T14:17:33;30.20;;;16.20;;
5499;SDS011;2772;42.700;23.304;2024-03-02T14:20:00;31.17;;;17.50;;
5499;SDS011;2772;42.700;23.304;2024-03-02T14:22:27;34.93;;;17.37;;
5499;SDS011;2772;42.700;23.304;2024-03-02T14:24:54;31.57;;;17.93;;
5499;SDS011;2772;42.700;23.304;2024-03-02T14:27:21;29.63;;;17.40;;
5499;SDS011;2772;42.700;23.304;2024-03-02T14:29:47;32.13;;;17.13;;
5499;SDS011;2772;42.700;23.304;2024-03-02T14:32:15;31.07;;;18.13;;
5499;SDS011;2772;42.700;23.304;2024-03-02T14:34:42;34.30;;;18.70;;
5499;SDS011;2772;42.700;23.304;2024-03-02T14:37:11;31.23;;;17.37;;